Time;durP1;ratioP1;P1;durP2;ratioP2;P2;SDS_P1;SDS_P2;PMS_P1;PMS_P2;Temp;Humidity;BMP_temperature;BMP_pressure;BME280_temperature;BME280_humidity;BME280_pressure;Samples;Min_cycle;Max_cycle;Signal;HPM_P1;HPM_P2
2022/10/24 00:01:18;;;;;;;0.88;0.88;;;19.80;99.90;;;;;;5006478;28;20042;-64
2022/10/24 00:03:45;;;;;;;0.75;0.70;;;19.80;99.90;;;;;;5010301;28;20068;-64
2022/10/24 00:06:13;;;;;;;0.70;0.70;;;19.70;99.90;;;;;;5005403;28;20045;-65
2022/10/24 00:08:41;;;;;;;0.47;0.47;;;19.70;99.90;;;;;;5000618;28;20045;-65
2022/10/24 00:11:12;;;;;;;2.92;1.60;;;19.80;99.90;;;;;;5002692;28;20052;-63
2022/10/24 00:13:40;;;;;;;3.58;1.67;;;19.80;99.90;;;;;;5010437;28;20038;-63
2022/10/24 00:16:07;;;;;;;2.08;0.98;;;19.80;99.90;;;;;;5009414;28;20409;-64
2022/10/24 00:18:35;;;;;;;0.98;0.73;;;19.80;99.90;;;;;;5007046;28;20497;-65
2022/10/24 00:21:03;;;;;;;0.77;0.77;;;19.80;99.90;;;;;;5016045;28;20038;-64
2022/10/24 00:23:30;;;;;;;0.75;0.70;;;19.80;99.90;;;;;;5012400;28;20042;-64
2022/10/24 00:26:00;;;;;;;1.25;0.98;;;19.80;99.90;;;;;;5007879;28;20049;-66
2022/10/24 00:28:32;;;;;;;0.32;0.32;;;19.80;99.90;;;;;;5001626;28;20057;-64
2022/10/24 00:31:00;;;;;;;0.50;0.50;;;19.70;99.90;;;;;;5004534;28;20057;-65
2022/10/24 00:33:27;;;;;;;;;;;19.80;99.90;;;;;;5018130;28;20517;-64
2022/10/24 00:35:54;;;;;;;1.13;0.80;;;19.80;99.90;;;;;;5010824;28;20495;-65
2022/10/24 00:38:21;;;;;;;2.25;1.25;;;19.80;99.90;;;;;;5000935;28;20053;-65
2022/10/24 00:40:49;;;;;;;1.35;1.10;;;19.80;99.90;;;;;;5002565;28;20050;-65
2022/10/24 00:43:19;;;;;;;0.70;0.55;;;19.80;99.90;;;;;;5012135;28;20034;-64
2022/10/24 00:45:47;;;;;;;0.52;0.52;;;19.80;99.90;;;;;;5004139;28;20042;-62
2022/10/24 00:48:39;;;;;;;0.57;0.57;;;19.80;99.90;;;;;;5006653;28;20053;-63
2022/10/24 00:51:12;;;;;;;1.35;1.13;;;19.80;99.90;;;;;;5019264;28;20073;-64
2022/10/24 00:53:48;;;;;;;0.52;0.52;;;19.80;99.90;;;;;;5003276;28;20050;-61
2022/10/24 00:56:19;;;;;;;0.77;0.77;;;19.80;99.90;;;;;;5004915;28;20054;-66
2022/10/24 00:58:48;;;;;;;0.70;0.70;;;19.80;99.90;;;;;;5010353;28;20406;-65
2022/10/24 01:01:15;;;;;;;0.40;0.40;;;19.80;99.90;;;;;;5008707;28;20049;-65
2022/10/24 01:03:43;;;;;;;1.92;0.88;;;19.80;99.90;;;;;;5004409;28;20312;-62
2022/10/24 01:06:22;;;;;;;0.60;0.60;;;19.80;99.90;;;;;;5008345;28;20045;-65
2022/10/24 01:09:07;;;;;;;0.57;0.57;;;19.80;99.90;;;;;;5004648;28;20054;-65
2022/10/24 01:11:54;;;;;;;0.65;0.65;;;19.80;99.90;;;;;;5008876;28;20049;-64
2022/10/24 01:14:33;;;;;;;0.30;0.30;;;19.80;99.90;;;;;;5007159;28;20042;-64
2022/10/24 01:17:39;;;;;;;0.43;0.43;;;19.80;99.90;;;;;;5009802;28;20080;-64
2022/10/24 01:20:18;;;;;;;0.73;0.73;;;19.80;99.90;;;;;;5007758;28;20042;-64
2022/10/24 01:23:07;;;;;;;1.45;0.80;;;19.80;99.90;;;;;;5002107;28;20046;-64
2022/10/24 01:26:09;;;;;;;0.50;0.50;;;19.80;99.90;;;;;;5011398;28;20046;-64
2022/10/24 01:28:43;;;;;;;0.50;0.50;;;19.80;99.90;;;;;;5015482;28;20057;-65
2022/10/24 01:31:20;;;;;;;0.40;0.40;;;19.80;99.90;;;;;;5023001;28;20337;-65
2022/10/24 01:33:58;;;;;;;0.70;0.70;;;19.70;99.90;;;;;;5012808;28;20053;-65
2022/10/24 01:36:35;;;;;;;0.30;0.30;;;19.80;99.90;;;;;;5008691;28;20050;-60
2022/10/24 01:39:09;;;;;;;0.40;0.40;;;19.80;99.90;;;;;;5004543;28;20049;-64
2022/10/24 01:41:40;;;;;;;0.50;0.50;;;19.80;99.90;;;;;;5001032;28;20056;-62
2022/10/24 01:44:19;;;;;;;0.52;0.52;;;19.80;99.90;;;;;;5003567;28;20053;-66
2022/10/24 01:46:53;;;;;;;4.10;1.13;;;19.80;99.90;;;;;;5000556;28;20058;-64
2022/10/24 01:49:26;;;;;;;0.90;0.90;;;19.80;99.90;;;;;;5019551;28;20050;-67
2022/10/24 01:51:58;;;;;;;0.70;0.70;;;19.80;99.90;;;;;;5021084;28;20060;-66
2022/10/24 01:54:26;;;;;;;4.53;2.08;;;19.80;99.90;;;;;;5015718;28;20037;-66
2022/10/24 01:56:54;;;;;;;0.50;0.50;;;19.70;99.90;;;;;;5021648;28;20053;-65
2022/10/24 01:59:27;;;;;;;3.97;1.10;;;19.70;99.90;;;;;;5022210;28;20381;-64
2022/10/24 02:02:08;;;;;;;0.60;0.60;;;19.80;99.90;;;;;;5007922;28;20474;-65
2022/10/24 02:04:43;;;;;;;2.30;0.95;;;19.70;99.90;;;;;;5005579;28;20045;-64
2022/10/24 02:07:12;;;;;;;1.65;1.15;;;19.70;99.90;;;;;;5017141;28;20053;-65
2022/10/24 02:09:42;;;;;;;1.55;0.93;;;19.70;99.90;;;;;;5008369;28;20057;-65
2022/10/24 02:12:13;;;;;;;0.63;0.63;;;19.70;99.90;;;;;;5001849;28;20049;-63
2022/10/24 02:14:47;;;;;;;0.55;0.55;;;19.70;99.90;;;;;;5004912;28;20054;-65
2022/10/24 02:17:15;;;;;;;0.30;0.30;;;19.70;99.90;;;;;;5006108;28;20052;-64
2022/10/24 02:19:44;;;;;;;0.95;0.95;;;19.70;99.90;;;;;;5013542;28;20514;-64
2022/10/24 02:22:37;;;;;;;0.60;0.60;;;19.70;99.90;;;;;;5000010;28;20046;-65
2022/10/24 02:25:09;;;;;;;0.38;0.38;;;19.70;99.90;;;;;;5007374;28;20050;-63
2022/10/24 02:27:48;;;;;;;0.85;0.85;;;19.70;99.90;;;;;;5002941;28;20072;-65
2022/10/24 02:30:22;;;;;;;5.50;1.10;;;19.70;99.90;;;;;;5014077;28;20064;-66
2022/10/24 02:32:53;;;;;;;0.43;0.43;;;19.70;99.90;;;;;;5004735;28;20050;-65
2022/10/24 02:35:27;;;;;;;0.38;0.38;;;19.70;99.90;;;;;;5002676;28;20073;-65
2022/10/24 02:38:19;;;;;;;0.35;0.35;;;19.70;99.90;;;;;;5005589;28;20061;-64
2022/10/24 02:40:48;;;;;;;2.35;1.30;;;19.70;99.90;;;;;;5001845;28;20056;-64
2022/10/24 02:43:18;;;;;;;0.35;0.35;;;19.70;99.90;;;;;;5010473;28;20525;-65
2022/10/24 02:45:46;;;;;;;0.40;0.40;;;19.70;99.90;;;;;;5004564;28;20049;-66
2022/10/24 02:48:16;;;;;;;0.60;0.60;;;19.70;99.90;;;;;;5005476;28;20406;-63
2022/10/24 02:50:44;;;;;;;0.70;0.70;;;19.70;99.90;;;;;;5011244;28;20406;-66
2022/10/24 02:53:13;;;;;;;1.63;0.85;;;19.70;99.90;;;;;;5004714;28;20226;-65
2022/10/24 02:55:41;;;;;;;0.60;0.60;;;19.70;99.90;;;;;;5011189;28;20450;-64
2022/10/24 02:58:08;;;;;;;0.40;0.40;;;19.60;99.90;;;;;;5007018;28;20050;-62
2022/10/24 03:00:35;;;;;;;0.45;0.45;;;19.60;99.90;;;;;;5008054;28;20053;-64
2022/10/24 03:03:03;;;;;;;0.30;0.30;;;19.60;99.90;;;;;;5014755;28;20039;-65
2022/10/24 03:05:30;;;;;;;0.70;0.70;;;19.70;99.90;;;;;;5002726;28;20041;-66
2022/10/24 03:07:57;;;;;;;1.45;1.17;;;19.60;99.90;;;;;;5009142;28;20394;-64
2022/10/24 03:10:24;;;;;;;0.50;0.50;;;19.70;99.90;;;;;;5010335;28;20061;-64
2022/10/24 03:12:52;;;;;;;0.40;0.40;;;19.70;99.90;;;;;;5001818;28;20046;-65
2022/10/24 03:15:19;;;;;;;0.55;0.55;;;19.60;99.90;;;;;;5008499;28;20057;-63
2022/10/24 03:17:48;;;;;;;0.65;0.65;;;19.70;99.90;;;;;;5008386;28;20050;-63
2022/10/24 03:20:15;;;;;;;0.30;0.30;;;19.60;99.90;;;;;;5024553;28;20053;-64
2022/10/24 03:22:43;;;;;;;8.18;1.20;;;19.60;99.90;;;;;;5008844;28;20412;-67
2022/10/24 03:25:10;;;;;;;0.50;0.50;;;19.60;99.90;;;;;;5007605;28;20046;-64
2022/10/24 03:27:38;;;;;;;0.30;0.30;;;19.70;99.90;;;;;;5006544;28;20042;-65
2022/10/24 03:30:06;;;;;;;0.40;0.40;;;19.70;99.90;;;;;;5004989;28;20064;-64
2022/10/24 03:32:33;;;;;;;1.00;0.88;;;19.60;99.90;;;;;;5009710;28;20052;-62
2022/10/24 03:35:01;;;;;;;0.70;0.70;;;19.60;99.90;;;;;;5013318;28;20042;-64
2022/10/24 03:37:29;;;;;;;1.38;1.10;;;19.70;99.90;;;;;;5006975;28;20053;-64
2022/10/24 03:39:56;;;;;;;0.70;0.60;;;19.60;99.90;;;;;;5008840;28;20037;-61
2022/10/24 03:42:23;;;;;;;0.50;0.50;;;19.60;99.90;;;;;;5001247;28;20426;-65
2022/10/24 03:44:51;;;;;;;0.60;0.60;;;19.70;99.90;;;;;;5007023;28;20065;-65
2022/10/24 03:47:18;;;;;;;0.50;0.50;;;19.60;99.90;;;;;;5007529;28;20046;-65
2022/10/24 03:49:45;;;;;;;0.30;0.30;;;19.70;99.90;;;;;;5012809;28;20461;-65
2022/10/24 03:52:14;;;;;;;2.63;1.08;;;19.60;99.90;;;;;;5008164;28;20054;-64
2022/10/24 03:54:41;;;;;;;0.30;0.30;;;19.60;99.90;;;;;;5014698;28;20053;-64
2022/10/24 03:57:08;;;;;;;0.40;0.40;;;19.60;99.90;;;;;;5005654;28;20494;-64
2022/10/24 03:59:36;;;;;;;0.43;0.43;;;19.60;99.90;;;;;;5013378;28;20068;-65
2022/10/24 04:02:05;;;;;;;0.40;0.40;;;19.60;99.90;;;;;;5012028;28;20509;-64
2022/10/24 04:04:32;;;;;;;0.40;0.40;;;19.60;99.90;;;;;;5001337;28;20053;-64
2022/10/24 04:06:59;;;;;;;0.40;0.40;;;19.60;99.90;;;;;;4997966;28;20054;-65
2022/10/24 04:09:27;;;;;;;0.40;0.40;;;19.60;99.90;;;;;;5061200;22;20061;-62
2022/10/24 04:11:54;;;;;;;;;;;19.60;99.90;;;;;;5042391;28;20045;-62
2022/10/24 04:14:22;;;;;;;0.63;0.63;;;19.60;99.90;;;;;;5062420;28;19920;-63
2022/10/24 04:16:49;;;;;;;0.77;0.77;;;19.60;99.90;;;;;;5063152;28;20051;-63
2022/10/24 04:19:17;;;;;;;1.15;1.05;;;19.60;99.90;;;;;;5073110;28;20044;-63
2022/10/24 04:21:46;;;;;;;0.40;0.40;;;19.60;99.90;;;;;;5062257;28;20837;-63
2022/10/24 04:24:14;;;;;;;1.13;0.73;;;19.60;99.90;;;;;;5060966;28;20531;-62
2022/10/24 04:26:42;;;;;;;0.40;0.40;;;19.60;99.90;;;;;;5058413;28;20532;-63
2022/10/24 04:29:10;;;;;;;0.40;0.40;;;19.60;99.90;;;;;;5058073;28;20045;-61
2022/10/24 04:31:37;;;;;;;0.80;0.80;;;19.60;99.90;;;;;;5057755;28;20052;-61
2022/10/24 04:34:05;;;;;;;1.35;0.95;;;19.60;99.90;;;;;;5066296;28;20499;-65
2022/10/24 04:36:33;;;;;;;;;;;19.70;99.90;;;;;;5058647;28;20427;-60
2022/10/24 04:39:00;;;;;;;0.50;0.50;;;19.60;99.90;;;;;;5056371;28;20401;-62
2022/10/24 04:41:27;;;;;;;;;;;19.70;99.90;;;;;;5053480;28;20424;-62
2022/10/24 04:43:55;;;;;;;0.55;0.55;;;19.60;99.90;;;;;;5058017;28;19925;-64
2022/10/24 04:46:22;;;;;;;0.63;0.63;;;19.60;99.90;;;;;;5055702;28;20396;-63
2022/10/24 04:48:49;;;;;;;0.95;0.95;;;19.70;99.90;;;;;;5060043;28;20056;-66
2022/10/24 04:51:17;;;;;;;0.43;0.43;;;19.70;99.90;;;;;;5056831;28;20057;-62
2022/10/24 04:53:49;;;;;;;0.35;0.35;;;19.70;99.90;;;;;;5062316;28;20504;-65
2022/10/24 04:56:17;;;;;;;0.75;0.75;;;19.70;99.90;;;;;;5051703;28;20057;-60
2022/10/24 04:58:45;;;;;;;1.20;0.70;;;19.60;99.90;;;;;;5054881;28;20047;-62
2022/10/24 05:01:12;;;;;;;0.43;0.43;;;19.60;99.90;;;;;;5054658;28;20053;-61
2022/10/24 05:03:40;;;;;;;0.40;0.40;;;19.60;99.90;;;;;;5063446;28;20037;-63
2022/10/24 05:06:07;;;;;;;0.45;0.45;;;19.60;99.90;;;;;;5054701;28;20052;-64
2022/10/24 05:08:35;;;;;;;0.32;0.32;;;19.60;99.90;;;;;;5061142;28;20041;-65
2022/10/24 05:11:02;;;;;;;0.52;0.52;;;19.60;99.90;;;;;;5035551;28;20057;-62
2022/10/24 05:13:30;;;;;;;0.60;0.60;;;19.60;99.90;;;;;;5042048;28;20053;-63
2022/10/24 05:16:04;;;;;;;0.57;0.50;;;19.60;99.90;;;;;;5053647;28;20056;-61
2022/10/24 05:18:31;;;;;;;0.40;0.40;;;19.60;99.90;;;;;;5059127;28;20056;-63
2022/10/24 05:20:59;;;;;;;0.35;0.35;;;19.60;99.90;;;;;;5061002;28;20048;-60
2022/10/24 05:23:27;;;;;;;0.30;0.30;;;19.60;99.90;;;;;;5059902;28;20045;-65
2022/10/24 05:25:54;;;;;;;1.30;0.60;;;19.60;99.90;;;;;;5051649;28;20049;-66
2022/10/24 05:28:22;;;;;;;2.85;1.05;;;19.60;99.90;;;;;;5064146;28;20404;-62
2022/10/24 05:30:49;;;;;;;0.50;0.50;;;19.50;99.90;;;;;;5037901;28;20044;-63
2022/10/24 05:33:16;;;;;;;0.40;0.40;;;19.60;99.90;;;;;;5052699;28;20279;-61
2022/10/24 05:35:43;;;;;;;0.50;0.50;;;19.50;99.90;;;;;;5062611;28;20036;-63
2022/10/24 05:38:11;;;;;;;0.30;0.30;;;19.60;99.90;;;;;;5075594;28;20052;-66
2022/10/24 05:40:38;;;;;;;1.52;1.05;;;19.50;99.90;;;;;;5067768;28;20045;-66
2022/10/24 05:43:06;;;;;;;0.43;0.43;;;19.50;99.90;;;;;;5045874;28;20060;-64
2022/10/24 05:45:33;;;;;;;1.35;0.95;;;19.60;99.90;;;;;;5046701;28;20048;-62
2022/10/24 05:48:01;;;;;;;0.40;0.40;;;19.60;99.90;;;;;;5055567;28;20047;-64
2022/10/24 05:50:28;;;;;;;0.98;0.75;;;19.60;99.90;;;;;;5042335;28;20484;-63
2022/10/24 05:52:57;;;;;;;0.38;0.38;;;19.60;99.90;;;;;;5037220;28;20443;-64
2022/10/24 05:55:25;;;;;;;0.30;0.30;;;19.60;99.90;;;;;;5038700;28;20052;-64
2022/10/24 05:57:52;;;;;;;0.40;0.40;;;19.60;99.90;;;;;;5040083;28;20056;-66
2022/10/24 06:00:19;;;;;;;0.40;0.40;;;19.60;99.90;;;;;;5024109;28;20052;-66
2022/10/24 06:02:46;;;;;;;0.55;0.52;;;19.60;99.90;;;;;;5052217;28;20041;-66
2022/10/24 06:05:14;;;;;;;0.82;0.82;;;19.70;99.90;;;;;;5058275;28;20041;-65
2022/10/24 06:07:41;;;;;;;0.30;0.30;;;19.70;99.90;;;;;;5056626;28;20041;-66
2022/10/24 06:10:10;;;;;;;;;;;19.70;99.90;;;;;;5039953;28;20468;-64
2022/10/24 06:12:38;;;;;;;0.30;0.30;;;19.70;99.90;;;;;;5048976;28;19925;-69
2022/10/24 06:15:07;;;;;;;0.40;0.40;;;19.70;99.90;;;;;;5049714;28;20073;-65
2022/10/24 06:17:34;;;;;;;1.15;0.98;;;19.80;99.90;;;;;;5042707;28;20050;-64
2022/10/24 06:20:02;;;;;;;0.40;0.40;;;19.80;99.90;;;;;;5047803;28;20052;-64
2022/10/24 06:22:29;;;;;;;0.40;0.40;;;19.80;99.90;;;;;;5037731;28;20042;-64
2022/10/24 06:24:57;;;;;;;0.40;0.40;;;19.70;99.90;;;;;;5026713;28;20087;-61
2022/10/24 06:27:24;;;;;;;0.40;0.40;;;19.70;99.90;;;;;;5042883;28;20073;-65
2022/10/24 06:29:52;;;;;;;0.50;0.50;;;19.70;99.90;;;;;;5027207;28;20049;-63
2022/10/24 06:32:19;;;;;;;0.50;0.50;;;19.80;99.90;;;;;;5042468;28;20516;-65
2022/10/24 06:34:46;;;;;;;0.30;0.30;;;19.70;99.90;;;;;;5038456;28;20045;-64
2022/10/24 06:37:13;;;;;;;0.80;0.77;;;19.70;99.90;;;;;;5045529;28;20049;-64
2022/10/24 06:39:41;;;;;;;16.08;2.65;;;19.70;99.90;;;;;;5042698;28;20519;-65
2022/10/24 06:42:08;;;;;;;0.70;0.70;;;19.70;99.90;;;;;;5047765;28;20048;-66
2022/10/24 06:44:37;;;;;;;1.67;1.15;;;19.80;99.90;;;;;;5044644;28;20068;-62
2022/10/24 06:47:05;;;;;;;0.40;0.40;;;19.80;99.90;;;;;;5043715;28;20048;-60
2022/10/24 06:49:32;;;;;;;0.50;0.50;;;19.80;99.90;;;;;;5041045;28;20049;-64
2022/10/24 06:52:00;;;;;;;14.13;2.50;;;19.70;99.90;;;;;;5044334;28;20516;-65
2022/10/24 06:54:27;;;;;;;4.40;2.55;;;19.40;99.90;;;;;;5028803;28;20059;-61
2022/10/24 06:56:57;;;;;;;1.88;1.23;;;19.10;99.90;;;;;;5039443;28;20052;-61
2022/10/24 06:59:24;;;;;;;4.07;1.52;;;19.10;99.90;;;;;;5040428;28;20529;-63
2022/10/24 07:01:52;;;;;;;0.98;0.98;;;19.30;99.90;;;;;;5040469;28;20531;-60
2022/10/24 07:04:19;;;;;;;4.53;2.05;;;19.40;99.90;;;;;;5044883;28;20045;-63
2022/10/24 07:06:47;;;;;;;1.67;1.40;;;19.40;99.90;;;;;;5041437;28;20041;-61
2022/10/24 07:09:14;;;;;;;0.50;0.50;;;19.50;99.90;;;;;;5043223;28;20060;-64
2022/10/24 07:11:43;;;;;;;1.25;1.02;;;19.50;99.90;;;;;;5041543;28;20405;-64
2022/10/24 07:14:11;;;;;;;0.90;0.90;;;19.60;99.90;;;;;;5037555;28;20052;-62
2022/10/24 07:16:39;;;;;;;1.45;1.35;;;19.60;99.90;;;;;;5041060;28;20408;-59
2022/10/24 07:19:06;;;;;;;1.92;1.42;;;19.60;99.90;;;;;;5032992;28;20045;-59
2022/10/24 07:21:34;;;;;;;0.70;0.70;;;19.70;99.90;;;;;;5042263;28;20505;-61
2022/10/24 07:24:01;;;;;;;0.60;0.60;;;19.70;99.90;;;;;;5044708;28;20041;-59
2022/10/24 07:26:29;;;;;;;1.23;1.00;;;19.70;99.90;;;;;;5021156;28;20049;-55
2022/10/24 07:28:59;;;;;;;;;;;19.70;99.90;;;;;;5044476;28;20048;-58
2022/10/24 07:31:30;;;;;;;0.65;0.65;;;19.80;99.90;;;;;;5041855;28;20396;-59
2022/10/24 07:34:00;;;;;;;4.75;2.67;;;19.80;99.90;;;;;;5047642;28;20764;-58
2022/10/24 07:36:29;;;;;;;1.55;1.42;;;19.80;99.90;;;;;;5022358;28;21601;-56
2022/10/24 07:38:57;;;;;;;0.90;0.90;;;19.80;99.90;;;;;;5037478;28;20056;-57
2022/10/24 07:41:27;;;;;;;2.38;1.42;;;19.80;99.90;;;;;;5043909;28;20037;-61
2022/10/24 07:43:56;;;;;;;1.00;0.70;;;19.90;99.90;;;;;;5030222;28;20038;-60
2022/10/24 07:46:24;;;;;;;0.55;0.55;;;19.90;99.90;;;;;;5035904;28;20048;-59
2022/10/24 07:48:53;;;;;;;0.50;0.50;;;19.90;99.90;;;;;;5045003;28;20048;-60
2022/10/24 07:51:21;;;;;;;0.70;0.70;;;19.80;99.90;;;;;;5042145;28;20045;-62
2022/10/24 07:53:48;;;;;;;0.70;0.70;;;19.80;99.90;;;;;;5046720;28;20416;-57
2022/10/24 07:56:17;;;;;;;0.60;0.60;;;19.80;99.90;;;;;;5044055;28;20045;-62
2022/10/24 07:58:45;;;;;;;4.13;2.05;;;19.80;99.90;;;;;;5040918;28;20041;-61
2022/10/24 08:01:20;;;;;;;2.03;0.93;;;19.80;99.90;;;;;;5041778;28;20037;-63
2022/10/24 08:03:48;;;;;;;0.57;0.57;;;19.80;99.90;;;;;;5042672;28;20412;-59
2022/10/24 08:06:18;;;;;;;1.98;1.20;;;19.80;99.90;;;;;;5062208;28;20047;-65
2022/10/24 08:08:45;;;;;;;0.65;0.65;;;19.70;99.90;;;;;;5048840;28;20063;-62
2022/10/24 08:11:23;;;;;;;1.38;1.27;;;19.60;99.90;;;;;;5056244;28;20049;-62
2022/10/24 08:13:53;;;;;;;0.57;0.57;;;19.70;99.90;;;;;;5058764;28;20053;-60
2022/10/24 08:16:22;;;;;;;0.57;0.57;;;19.70;99.90;;;;;;5054875;28;20044;-63
2022/10/24 08:18:51;;;;;;;0.73;0.73;;;19.70;99.90;;;;;;5046683;28;20516;-63
2022/10/24 08:21:20;;;;;;;1.17;1.08;;;19.70;99.90;;;;;;5044063;28;20045;-64
2022/10/24 08:23:50;;;;;;;2.00;1.48;;;19.70;99.90;;;;;;5045228;28;20072;-62
2022/10/24 08:26:20;;;;;;;1.48;1.00;;;19.70;99.90;;;;;;5046889;28;20041;-60
2022/10/24 08:28:49;;;;;;;1.50;1.23;;;19.70;99.90;;;;;;5051532;28;20163;-62
2022/10/24 08:31:22;;;;;;;0.80;0.80;;;19.70;99.90;;;;;;5028791;28;20061;-63
2022/10/24 08:33:54;;;;;;;1.75;1.10;;;19.70;99.90;;;;;;5040840;28;20054;-61
2022/10/24 08:36:27;;;;;;;0.63;0.63;;;19.70;99.90;;;;;;5043813;28;20049;-60
2022/10/24 08:38:55;;;;;;;3.08;1.65;;;19.70;99.90;;;;;;5045877;28;20061;-62
2022/10/24 08:41:36;;;;;;;1.20;0.85;;;19.70;99.90;;;;;;5049134;28;20045;-61
2022/10/24 08:44:19;;;;;;;0.65;0.65;;;19.80;99.90;;;;;;5035168;28;20060;-62
2022/10/24 08:46:52;;;;;;;3.15;1.67;;;19.80;99.90;;;;;;5040964;28;20058;-60
2022/10/24 08:49:19;;;;;;;0.50;0.50;;;19.80;99.90;;;;;;5044166;28;20052;-63
2022/10/24 08:51:53;;;;;;;0.82;0.82;;;19.70;99.90;;;;;;5040775;28;20055;-64
2022/10/24 08:54:43;;;;;;;3.72;1.88;;;19.80;99.90;;;;;;5039410;28;20612;-61
2022/10/24 08:57:22;;;;;;;3.05;1.42;;;19.80;99.90;;;;;;5043026;28;20063;-62
2022/10/24 08:59:53;;;;;;;1.42;1.33;;;19.80;99.90;;;;;;5040367;28;20063;-63
2022/10/24 09:02:24;;;;;;;5.47;2.15;;;19.80;99.90;;;;;;5046547;28;20052;-61
2022/10/24 09:05:00;;;;;;;0.98;0.88;;;19.80;99.90;;;;;;5030023;28;20493;-62
2022/10/24 09:07:28;;;;;;;1.98;1.23;;;19.80;99.90;;;;;;5048246;28;20044;-63
2022/10/24 09:10:18;;;;;;;1.65;1.27;;;19.80;99.90;;;;;;5050308;28;20065;-61
2022/10/24 09:12:46;;;;;;;1.27;1.05;;;19.80;99.90;;;;;;5034544;28;20366;-64
2022/10/24 09:15:19;;;;;;;3.03;2.75;;;19.80;99.90;;;;;;5042353;28;20041;-62
2022/10/24 09:17:47;;;;;;;2.70;1.33;;;19.80;99.90;;;;;;5050520;28;20049;-62
2022/10/24 09:20:24;;;;;;;2.97;0.85;;;19.80;99.90;;;;;;5047396;28;20255;-57
2022/10/24 09:22:58;;;;;;;2.50;2.28;;;19.80;99.90;;;;;;5038796;28;20435;-57
2022/10/24 09:25:33;;;;;;;2.78;1.75;;;19.80;99.90;;;;;;5045489;28;20066;-61
2022/10/24 09:28:03;;;;;;;0.40;0.40;;;19.80;99.90;;;;;;5046509;28;20045;-65
2022/10/24 09:30:31;;;;;;;0.82;0.82;;;19.90;99.90;;;;;;5045569;28;20583;-63
2022/10/24 09:33:16;;;;;;;0.75;0.75;;;19.90;99.90;;;;;;5031226;28;20429;-64
2022/10/24 09:35:44;;;;;;;2.60;1.58;;;19.90;99.90;;;;;;5025201;28;20285;-61
2022/10/24 09:38:30;;;;;;;3.00;1.63;;;19.90;99.90;;;;;;5021881;28;20064;-64
2022/10/24 09:41:26;;;;;;;3.75;1.35;;;19.90;99.90;;;;;;5045645;28;20044;-65
2022/10/24 09:44:00;;;;;;;1.58;1.38;;;19.90;99.90;;;;;;5041377;28;20060;-63
2022/10/24 09:46:44;;;;;;;0.68;0.68;;;19.90;99.90;;;;;;5035227;28;20428;-62
2022/10/24 09:49:12;;;;;;;1.42;1.20;;;19.90;99.90;;;;;;5044815;28;20041;-62
2022/10/24 09:51:48;;;;;;;6.95;1.98;;;19.90;99.90;;;;;;5042157;28;20049;-62
2022/10/24 09:54:18;;;;;;;2.70;1.42;;;19.90;99.90;;;;;;5023834;28;20383;-63
2022/10/24 09:57:01;;;;;;;2.55;1.75;;;19.90;99.90;;;;;;5043598;28;20492;-62
2022/10/24 09:59:47;;;;;;;2.80;1.25;;;19.90;99.90;;;;;;5042306;28;20044;-62
2022/10/24 10:02:33;;;;;;;0.47;0.47;;;19.90;99.90;;;;;;5029560;28;20221;-63
2022/10/24 10:05:01;;;;;;;2.17;1.25;;;19.90;99.90;;;;;;5036587;28;20448;-62
2022/10/24 10:07:34;;;;;;;0.52;0.52;;;19.90;99.90;;;;;;5037324;28;20049;-66
2022/10/24 10:10:28;;;;;;;0.75;0.75;;;19.90;99.90;;;;;;5033632;28;20436;-62
2022/10/24 10:13:18;;;;;;;1.65;0.98;;;19.90;99.90;;;;;;5045640;28;20060;-64
2022/10/24 10:15:49;;;;;;;2.60;1.52;;;19.80;99.90;;;;;;5034541;28;20055;-65
2022/10/24 10:18:21;;;;;;;2.38;1.63;;;19.90;99.90;;;;;;5042267;28;20053;-60
2022/10/24 10:21:05;;;;;;;1.27;0.55;;;19.90;99.90;;;;;;5039919;28;20041;-58
2022/10/24 10:23:54;;;;;;;3.42;1.95;;;20.00;99.90;;;;;;5038823;28;20056;-59
2022/10/24 10:26:50;;;;;;;0.63;0.63;;;20.10;99.90;;;;;;5032862;28;20044;-61
2022/10/24 10:29:18;;;;;;;7.72;3.45;;;20.10;99.90;;;;;;5023448;28;20053;-59
2022/10/24 10:32:28;;;;;;;3.28;1.58;;;20.10;99.90;;;;;;5031287;28;20053;-62
2022/10/24 10:35:04;;;;;;;2.72;1.58;;;20.10;99.90;;;;;;5016716;28;20061;-59
2022/10/24 10:37:35;;;;;;;3.60;2.33;;;20.20;99.90;;;;;;5030458;28;20049;-56
2022/10/24 10:40:30;;;;;;;1.50;1.10;;;20.20;99.90;;;;;;5030113;28;20055;-59
2022/10/24 10:43:05;;;;;;;2.20;1.33;;;20.30;99.90;;;;;;5042168;28;20057;-54
2022/10/24 10:45:41;;;;;;;18.13;3.70;;;20.30;99.90;;;;;;5025634;28;20049;-61
2022/10/24 10:48:21;;;;;;;0.80;0.80;;;20.30;99.90;;;;;;5032936;28;20045;-58
2022/10/24 10:50:57;;;;;;;4.95;1.35;;;20.30;99.90;;;;;;5039027;28;20497;-59
2022/10/24 10:53:42;;;;;;;2.03;1.65;;;20.40;99.90;;;;;;5038715;28;20440;-57
2022/10/24 10:56:47;;;;;;;3.22;1.58;;;20.40;99.90;;;;;;5037630;28;20045;-60
2022/10/24 10:59:43;;;;;;;3.50;1.70;;;20.40;99.90;;;;;;5042461;28;20045;-62
2022/10/24 11:02:29;;;;;;;1.35;1.10;;;20.40;99.90;;;;;;5041108;28;20037;-62
2022/10/24 11:05:00;;;;;;;0.73;0.73;;;20.40;99.90;;;;;;5047276;28;20049;-64
2022/10/24 11:07:37;;;;;;;0.85;0.85;;;20.40;99.90;;;;;;5038497;28;20292;-62
2022/10/24 11:10:06;;;;;;;;;;;20.40;99.90;;;;;;5043991;28;20047;-62
2022/10/24 11:12:40;;;;;;;2.92;1.80;;;20.40;99.90;;;;;;5042135;28;20344;-60
2022/10/24 11:15:20;;;;;;;1.60;1.40;;;20.40;99.90;;;;;;5048691;28;20049;-61
2022/10/24 11:18:14;;;;;;;2.75;1.67;;;20.40;99.90;;;;;;5049765;28;20068;-61
2022/10/24 11:20:47;;;;;;;2.03;1.70;;;20.40;99.90;;;;;;5030711;28;20064;-61
2022/10/24 11:23:39;;;;;;;0.70;0.70;;;20.40;99.90;;;;;;5047285;28;20044;-62
2022/10/24 11:26:26;;;;;;;4.00;2.38;;;20.40;99.90;;;;;;5044414;28;20392;-63
2022/10/24 11:29:14;;;;;;;0.93;0.93;;;20.40;99.90;;;;;;5049019;28;20040;-61
2022/10/24 11:32:08;;;;;;;6.72;3.10;;;20.40;99.90;;;;;;5045986;28;20068;-65
2022/10/24 11:34:50;;;;;;;3.00;1.45;;;20.40;99.90;;;;;;4978512;28;20057;-66
2022/10/24 11:37:32;;;;;;;2.63;1.13;;;20.40;99.90;;;;;;5047045;28;20082;-66
2022/10/24 11:40:10;;;;;;;1.13;1.05;;;20.40;99.90;;;;;;5042972;28;20061;-63
2022/10/24 11:42:53;;;;;;;2.70;1.38;;;20.40;99.90;;;;;;5039205;28;20049;-65
2022/10/24 11:45:27;;;;;;;2.15;1.65;;;20.40;99.90;;;;;;5042861;28;20440;-68
2022/10/24 11:48:13;;;;;;;1.45;0.70;;;20.40;99.90;;;;;;5025622;28;20041;-67
2022/10/24 11:51:06;;;;;;;0.50;0.50;;;20.40;99.90;;;;;;5041379;28;20859;-64
2022/10/24 11:53:34;;;;;;;1.15;1.05;;;20.40;99.90;;;;;;5049496;28;20064;-68
2022/10/24 11:56:10;;;;;;;3.08;1.42;;;20.40;99.90;;;;;;5045148;28;20057;-67
2022/10/24 11:58:58;;;;;;;1.30;0.93;;;20.40;99.90;;;;;;5046852;28;20127;-68
2022/10/24 12:01:40;;;;;;;1.35;0.95;;;20.40;99.90;;;;;;5031814;28;20068;-69
2022/10/24 12:04:26;;;;;;;1.50;1.40;;;20.40;99.90;;;;;;5053079;28;20049;-67
2022/10/24 12:07:31;;;;;;;0.47;0.47;;;20.40;99.90;;;;;;5045211;28;20045;-66
2022/10/24 12:10:08;;;;;;;1.65;1.20;;;20.40;99.90;;;;;;5039183;28;20528;-66
2022/10/24 12:13:02;;;;;;;3.25;2.13;;;20.40;99.90;;;;;;5039388;28;20504;-66
2022/10/24 12:15:47;;;;;;;0.60;0.60;;;20.40;99.90;;;;;;5040777;28;20049;-67
2022/10/24 12:18:40;;;;;;;1.33;1.20;;;20.40;99.90;;;;;;5026177;28;20059;-65
2022/10/24 12:21:53;;;;;;;4.10;2.38;;;20.40;99.90;;;;;;5037689;28;20515;-61
2022/10/24 12:24:29;;;;;;;1.15;0.73;;;20.40;99.90;;;;;;5039169;28;20048;-65
2022/10/24 12:27:01;;;;;;;0.60;0.60;;;20.40;99.90;;;;;;5039086;28;20119;-63
2022/10/24 12:29:32;;;;;;;3.38;1.15;;;20.40;99.90;;;;;;5026133;28;20060;-71
2022/10/24 12:32:39;;;;;;;1.65;1.27;;;20.40;99.90;;;;;;5022336;28;20054;-64
2022/10/24 12:35:34;;;;;;;1.15;1.05;;;20.40;99.90;;;;;;5038432;28;20045;-66
2022/10/24 12:38:13;;;;;;;1.45;1.35;;;20.50;99.90;;;;;;4992700;28;20045;-65
2022/10/24 12:40:51;;;;;;;1.63;1.45;;;20.60;99.90;;;;;;5038490;28;20697;-66
2022/10/24 12:43:32;;;;;;;0.82;0.82;;;20.60;99.90;;;;;;5026572;28;20041;-63
2022/10/24 12:46:23;;;;;;;1.25;0.80;;;20.60;99.90;;;;;;5037098;28;20053;-69
2022/10/24 12:48:57;;;;;;;0.77;0.77;;;20.70;99.90;;;;;;5041736;28;20040;-67
2022/10/24 12:51:28;;;;;;;1.05;1.05;;;20.70;99.90;;;;;;5038604;28;20068;-66
2022/10/24 12:54:03;;;;;;;1.30;1.20;;;20.80;99.90;;;;;;5019628;28;20049;-66
2022/10/24 12:56:33;;;;;;;0.73;0.73;;;20.80;99.90;;;;;;5043303;28;20037;-67
2022/10/24 12:59:21;;;;;;;2.95;1.95;;;20.80;99.90;;;;;;5029868;28;20045;-66
2022/10/24 13:02:06;;;;;;;1.05;0.95;;;20.80;99.90;;;;;;5040217;28;20049;-67
2022/10/24 13:05:02;;;;;;;4.65;2.22;;;20.80;99.90;;;;;;5045254;28;20041;-64
2022/10/24 13:07:41;;;;;;;0.88;0.88;;;20.70;99.90;;;;;;5028860;28;20042;-63
2022/10/24 13:10:44;;;;;;;3.67;2.03;;;20.80;99.90;;;;;;5044846;28;20052;-64
2022/10/24 13:13:29;;;;;;;2.22;1.75;;;20.80;99.90;;;;;;5033542;28;20048;-65
2022/10/24 13:16:05;;;;;;;1.85;1.65;;;20.80;99.90;;;;;;5023651;28;20055;-61
2022/10/24 13:18:54;;;;;;;0.50;0.50;;;20.80;99.90;;;;;;5042421;28;20121;-66
2022/10/24 13:21:27;;;;;;;2.47;1.40;;;20.80;99.90;;;;;;5043333;28;20048;-65